sensor_id;sensor_type;location;lat;lon;timestamp;P1;durP1;ratioP1;P2;durP2;ratioP2
47103;SDS011;32853;52.164;5.400;2022-11-20T00:01:31;22.67;;;8.43;;
47103;SDS011;32853;52.164;5.400;2022-11-20T00:03:57;18.83;;;8.20;;
47103;SDS011;32853;52.164;5.400;2022-11-20T00:09:20;16.87;;;6.97;;
47103;SDS011;32853;52.164;5.400;2022-11-20T00:11:45;13.63;;;7.90;;
47103;SDS011;32853;52.164;5.400;2022-11-20T00:14:10;18.70;;;6.77;;
47103;SDS011;32853;52.164;5.400;2022-11-20T00:19:46;17.87;;;7.70;;
47103;SDS011;32853;52.164;5.400;2022-11-20T00:22:11;21.67;;;7.13;;
47103;SDS011;32853;52.164;5.400;2022-11-20T00:24:46;18.27;;;7.13;;
47103;SDS011;32853;52.164;5.400;2022-11-20T00:27:11;17.03;;;8.13;;
47103;SDS011;32853;52.164;5.400;2022-11-20T00:29:37;17.27;;;7.53;;
47103;SDS011;32853;52.164;5.400;2022-11-20T00:32:02;15.87;;;6.73;;
47103;SDS011;32853;52.164;5.400;2022-11-20T00:34:27;18.63;;;7.33;;
47103;SDS011;32853;52.164;5.400;2022-11-20T00:36:53;20.53;;;7.67;;
47103;SDS011;32853;52.164;5.400;2022-11-20T00:39:18;12.23;;;7.30;;
47103;SDS011;32853;52.164;5.400;2022-11-20T00:41:43;20.30;;;8.00;;
47103;SDS011;32853;52.164;5.400;2022-11-20T00:44:09;17.53;;;7.37;;
47103;SDS011;32853;52.164;5.400;2022-11-20T00:46:34;20.07;;;8.07;;
47103;SDS011;32853;52.164;5.400;2022-11-20T00:49:02;16.40;;;7.57;;
47103;SDS011;32853;52.164;5.400;2022-11-20T00:51:28;19.60;;;8.90;;
47103;SDS011;32853;52.164;5.400;2022-11-20T00:53:57;17.33;;;6.17;;
47103;SDS011;32853;52.164;5.400;2022-11-20T00:56:25;12.20;;;6.60;;
47103;SDS011;32853;52.164;5.400;2022-11-20T00:58:51;11.47;;;5.77;;
47103;SDS011;32853;52.164;5.400;2022-11-20T01:03:56;19.47;;;6.87;;
47103;SDS011;32853;52.164;5.400;2022-11-20T01:06:26;15.50;;;6.73;;
47103;SDS011;32853;52.164;5.400;2022-11-20T01:11:42;15.37;;;6.20;;
47103;SDS011;32853;52.164;5.400;2022-11-20T01:14:10;12.97;;;6.00;;
47103;SDS011;32853;52.164;5.400;2022-11-20T01:16:38;13.50;;;6.20;;
47103;SDS011;32853;52.164;5.400;2022-11-20T01:19:08;15.23;;;5.97;;
47103;SDS011;32853;52.164;5.400;2022-11-20T01:21:54;11.07;;;5.93;;
47103;SDS011;32853;52.164;5.400;2022-11-20T01:24:20;17.60;;;6.63;;
47103;SDS011;32853;52.164;5.400;2022-11-20T01:26:47;13.07;;;6.27;;
47103;SDS011;32853;52.164;5.400;2022-11-20T01:29:21;14.97;;;7.27;;
47103;SDS011;32853;52.164;5.400;2022-11-20T01:31:51;12.87;;;6.93;;
47103;SDS011;32853;52.164;5.400;2022-11-20T01:34:31;17.67;;;6.57;;
47103;SDS011;32853;52.164;5.400;2022-11-20T01:36:59;15.87;;;6.80;;
47103;SDS011;32853;52.164;5.400;2022-11-20T01:39:28;17.83;;;6.87;;
47103;SDS011;32853;52.164;5.400;2022-11-20T01:48:25;16.53;;;6.13;;
47103;SDS011;32853;52.164;5.400;2022-11-20T01:54:03;14.83;;;7.00;;
47103;SDS011;32853;52.164;5.400;2022-11-20T01:56:37;14.97;;;6.33;;
47103;SDS011;32853;52.164;5.400;2022-11-20T01:59:13;12.30;;;6.30;;
47103;SDS011;32853;52.164;5.400;2022-11-20T02:01:40;13.27;;;6.97;;
47103;SDS011;32853;52.164;5.400;2022-11-20T02:04:06;10.60;;;5.27;;
47103;SDS011;32853;52.164;5.400;2022-11-20T02:06:46;16.33;;;6.67;;
47103;SDS011;32853;52.164;5.400;2022-11-20T02:12:01;15.97;;;6.80;;
47103;SDS011;32853;52.164;5.400;2022-11-20T02:14:36;16.70;;;6.53;;
47103;SDS011;32853;52.164;5.400;2022-11-20T02:17:10;8.37;;;5.40;;
47103;SDS011;32853;52.164;5.400;2022-11-20T02:19:50;13.00;;;6.47;;
47103;SDS011;32853;52.164;5.400;2022-11-20T02:22:25;14.67;;;6.80;;
47103;SDS011;32853;52.164;5.400;2022-11-20T02:25:00;13.00;;;5.13;;
47103;SDS011;32853;52.164;5.400;2022-11-20T02:27:28;16.90;;;7.63;;
47103;SDS011;32853;52.164;5.400;2022-11-20T02:29:56;12.67;;;6.63;;
47103;SDS011;32853;52.164;5.400;2022-11-20T02:32:25;11.17;;;6.07;;
47103;SDS011;32853;52.164;5.400;2022-11-20T02:34:52;19.30;;;7.97;;
47103;SDS011;32853;52.164;5.400;2022-11-20T02:37:18;10.67;;;6.10;;
47103;SDS011;32853;52.164;5.400;2022-11-20T02:39:46;18.20;;;6.57;;
47103;SDS011;32853;52.164;5.400;2022-11-20T02:42:13;13.10;;;5.43;;
47103;SDS011;32853;52.164;5.400;2022-11-20T02:44:39;12.27;;;6.93;;
47103;SDS011;32853;52.164;5.400;2022-11-20T02:47:05;14.63;;;6.53;;
47103;SDS011;32853;52.164;5.400;2022-11-20T02:49:30;13.37;;;5.70;;
47103;SDS011;32853;52.164;5.400;2022-11-20T02:51:55;23.03;;;7.13;;
47103;SDS011;32853;52.164;5.400;2022-11-20T02:54:21;13.87;;;5.87;;
47103;SDS011;32853;52.164;5.400;2022-11-20T02:56:46;16.07;;;7.00;;
47103;SDS011;32853;52.164;5.400;2022-11-20T02:59:15;18.23;;;7.17;;
47103;SDS011;32853;52.164;5.400;2022-11-20T03:01:43;18.40;;;7.03;;
47103;SDS011;32853;52.164;5.400;2022-11-20T03:04:09;13.23;;;6.17;;
47103;SDS011;32853;52.164;5.400;2022-11-20T03:06:35;13.63;;;6.23;;
47103;SDS011;32853;52.164;5.400;2022-11-20T03:11:54;14.20;;;6.00;;
47103;SDS011;32853;52.164;5.400;2022-11-20T03:14:19;11.87;;;5.70;;
47103;SDS011;32853;52.164;5.400;2022-11-20T03:16:47;15.53;;;6.47;;
47103;SDS011;32853;52.164;5.400;2022-11-20T03:19:14;12.13;;;6.13;;
47103;SDS011;32853;52.164;5.400;2022-11-20T03:21:45;11.60;;;4.90;;
47103;SDS011;32853;52.164;5.400;2022-11-20T03:24:13;11.83;;;5.70;;
47103;SDS011;32853;52.164;5.400;2022-11-20T03:26:38;16.00;;;6.57;;
47103;SDS011;32853;52.164;5.400;2022-11-20T03:29:04;9.87;;;5.23;;
47103;SDS011;32853;52.164;5.400;2022-11-20T03:31:32;15.93;;;6.53;;
47103;SDS011;32853;52.164;5.400;2022-11-20T03:34:05;19.63;;;7.23;;
47103;SDS011;32853;52.164;5.400;2022-11-20T03:36:32;14.93;;;5.43;;
47103;SDS011;32853;52.164;5.400;2022-11-20T03:39:11;14.00;;;6.37;;
47103;SDS011;32853;52.164;5.400;2022-11-20T03:41:38;15.63;;;7.13;;
47103;SDS011;32853;52.164;5.400;2022-11-20T03:44:06;22.73;;;7.97;;
47103;SDS011;32853;52.164;5.400;2022-11-20T03:46:34;21.03;;;7.80;;
47103;SDS011;32853;52.164;5.400;2022-11-20T03:48:59;12.27;;;6.03;;
47103;SDS011;32853;52.164;5.400;2022-11-20T03:51:26;16.37;;;8.07;;
47103;SDS011;32853;52.164;5.400;2022-11-20T03:53:56;12.77;;;5.63;;
47103;SDS011;32853;52.164;5.400;2022-11-20T03:56:39;18.20;;;6.63;;
47103;SDS011;32853;52.164;5.400;2022-11-20T03:59:05;17.37;;;6.80;;
47103;SDS011;32853;52.164;5.400;2022-11-20T04:01:35;15.33;;;6.47;;
47103;SDS011;32853;52.164;5.400;2022-11-20T04:04:02;14.40;;;6.57;;
47103;SDS011;32853;52.164;5.400;2022-11-20T04:06:33;17.73;;;6.27;;
47103;SDS011;32853;52.164;5.400;2022-11-20T04:09:03;14.32;;;7.20;;
47103;SDS011;32853;52.164;5.400;2022-11-20T04:11:33;12.37;;;6.27;;
47103;SDS011;32853;52.164;5.400;2022-11-20T04:14:00;18.77;;;7.40;;
47103;SDS011;32853;52.164;5.400;2022-11-20T04:16:31;14.30;;;7.37;;
47103;SDS011;32853;52.164;5.400;2022-11-20T04:19:05;14.97;;;6.00;;
47103;SDS011;32853;52.164;5.400;2022-11-20T04:21:35;14.43;;;6.15;;
47103;SDS011;32853;52.164;5.400;2022-11-20T04:24:02;15.77;;;7.23;;
47103;SDS011;32853;52.164;5.400;2022-11-20T04:26:33;12.43;;;5.87;;
47103;SDS011;32853;52.164;5.400;2022-11-20T04:28:59;16.93;;;7.87;;
47103;SDS011;32853;52.164;5.400;2022-11-20T04:31:29;17.87;;;6.73;;
47103;SDS011;32853;52.164;5.400;2022-11-20T04:34:11;16.23;;;5.47;;
47103;SDS011;32853;52.164;5.400;2022-11-20T04:36:36;16.13;;;6.27;;
47103;SDS011;32853;52.164;5.400;2022-11-20T04:44:54;22.43;;;7.57;;
47103;SDS011;32853;52.164;5.400;2022-11-20T04:47:25;14.97;;;6.40;;
47103;SDS011;32853;52.164;5.400;2022-11-20T04:49:50;13.10;;;6.20;;
47103;SDS011;32853;52.164;5.400;2022-11-20T04:52:18;15.67;;;6.63;;
47103;SDS011;32853;52.164;5.400;2022-11-20T04:55:01;12.27;;;6.57;;
47103;SDS011;32853;52.164;5.400;2022-11-20T04:57:49;24.63;;;7.40;;
47103;SDS011;32853;52.164;5.400;2022-11-20T05:00:21;16.43;;;6.83;;
47103;SDS011;32853;52.164;5.400;2022-11-20T05:02:49;15.13;;;6.60;;
47103;SDS011;32853;52.164;5.400;2022-11-20T05:05:14;14.33;;;7.27;;
47103;SDS011;32853;52.164;5.400;2022-11-20T05:07:43;18.77;;;6.70;;
47103;SDS011;32853;52.164;5.400;2022-11-20T05:10:23;16.80;;;6.77;;
47103;SDS011;32853;52.164;5.400;2022-11-20T05:13:09;18.60;;;6.93;;
47103;SDS011;32853;52.164;5.400;2022-11-20T05:15:42;19.90;;;8.50;;
47103;SDS011;32853;52.164;5.400;2022-11-20T05:20:43;18.63;;;7.20;;
47103;SDS011;32853;52.164;5.400;2022-11-20T05:23:16;20.13;;;6.33;;
47103;SDS011;32853;52.164;5.400;2022-11-20T05:28:34;14.50;;;6.80;;
47103;SDS011;32853;52.164;5.400;2022-11-20T05:31:09;18.70;;;6.93;;
47103;SDS011;32853;52.164;5.400;2022-11-20T05:33:37;16.10;;;6.97;;
47103;SDS011;32853;52.164;5.400;2022-11-20T05:36:05;14.37;;;6.40;;
47103;SDS011;32853;52.164;5.400;2022-11-20T05:38:31;18.30;;;7.77;;
47103;SDS011;32853;52.164;5.400;2022-11-20T05:41:13;14.27;;;6.60;;
47103;SDS011;32853;52.164;5.400;2022-11-20T05:43:44;14.00;;;6.17;;
47103;SDS011;32853;52.164;5.400;2022-11-20T05:46:13;17.03;;;7.87;;
47103;SDS011;32853;52.164;5.400;2022-11-20T05:48:46;19.90;;;6.33;;
47103;SDS011;32853;52.164;5.400;2022-11-20T05:51:16;15.82;;;5.95;;
47103;SDS011;32853;52.164;5.400;2022-11-20T05:53:44;15.97;;;7.63;;
47103;SDS011;32853;52.164;5.400;2022-11-20T05:56:10;14.23;;;6.67;;
47103;SDS011;32853;52.164;5.400;2022-11-20T05:58:39;18.13;;;7.37;;
47103;SDS011;32853;52.164;5.400;2022-11-20T06:01:18;12.57;;;6.17;;
47103;SDS011;32853;52.164;5.400;2022-11-20T06:03:45;15.53;;;6.37;;
47103;SDS011;32853;52.164;5.400;2022-11-20T06:06:18;14.27;;;6.73;;
47103;SDS011;32853;52.164;5.400;2022-11-20T06:08:44;14.27;;;7.03;;
47103;SDS011;32853;52.164;5.400;2022-11-20T06:11:11;14.33;;;5.60;;
47103;SDS011;32853;52.164;5.400;2022-11-20T06:13:38;28.53;;;7.87;;
47103;SDS011;32853;52.164;5.400;2022-11-20T06:16:11;14.30;;;6.40;;
47103;SDS011;32853;52.164;5.400;2022-11-20T06:18:48;17.10;;;6.30;;
47103;SDS011;32853;52.164;5.400;2022-11-20T06:21:17;18.47;;;7.43;;
47103;SDS011;32853;52.164;5.400;2022-11-20T06:23:44;14.83;;;6.83;;
47103;SDS011;32853;52.164;5.400;2022-11-20T06:26:13;12.73;;;5.83;;
47103;SDS011;32853;52.164;5.400;2022-11-20T06:28:41;18.30;;;6.87;;
47103;SDS011;32853;52.164;5.400;2022-11-20T06:31:20;14.80;;;6.63;;
47103;SDS011;32853;52.164;5.400;2022-11-20T06:33:59;16.48;;;6.15;;
47103;SDS011;32853;52.164;5.400;2022-11-20T06:36:41;14.93;;;6.50;;
47103;SDS011;32853;52.164;5.400;2022-11-20T06:39:06;14.03;;;6.40;;
47103;SDS011;32853;52.164;5.400;2022-11-20T06:41:32;26.97;;;8.33;;
47103;SDS011;32853;52.164;5.400;2022-11-20T06:43:57;15.30;;;6.00;;
47103;SDS011;32853;52.164;5.400;2022-11-20T06:46:26;15.10;;;6.87;;
47103;SDS011;32853;52.164;5.400;2022-11-20T06:48:52;14.97;;;6.37;;
47103;SDS011;32853;52.164;5.400;2022-11-20T06:51:33;17.20;;;7.30;;
47103;SDS011;32853;52.164;5.400;2022-11-20T06:56:47;25.73;;;7.40;;
47103;SDS011;32853;52.164;5.400;2022-11-20T06:59:13;15.63;;;6.90;;
47103;SDS011;32853;52.164;5.400;2022-11-20T07:01:48;12.53;;;6.90;;
47103;SDS011;32853;52.164;5.400;2022-11-20T07:04:17;13.87;;;7.50;;
47103;SDS011;32853;52.164;5.400;2022-11-20T07:09:52;18.03;;;6.77;;
47103;SDS011;32853;52.164;5.400;2022-11-20T07:12:20;11.53;;;5.97;;
47103;SDS011;32853;52.164;5.400;2022-11-20T07:14:49;11.13;;;6.03;;
47103;SDS011;32853;52.164;5.400;2022-11-20T07:17:17;15.40;;;7.63;;
47103;SDS011;32853;52.164;5.400;2022-11-20T07:19:48;15.20;;;7.17;;
47103;SDS011;32853;52.164;5.400;2022-11-20T07:22:30;15.93;;;6.70;;
47103;SDS011;32853;52.164;5.400;2022-11-20T07:28:07;17.93;;;6.00;;
47103;SDS011;32853;52.164;5.400;2022-11-20T07:30:35;14.20;;;6.87;;
47103;SDS011;32853;52.164;5.400;2022-11-20T07:33:04;15.63;;;6.40;;
47103;SDS011;32853;52.164;5.400;2022-11-20T07:35:29;19.50;;;6.80;;
47103;SDS011;32853;52.164;5.400;2022-11-20T07:37:57;18.07;;;6.20;;
47103;SDS011;32853;52.164;5.400;2022-11-20T07:40:30;12.90;;;6.33;;
47103;SDS011;32853;52.164;5.400;2022-11-20T07:42:55;12.15;;;6.68;;
47103;SDS011;32853;52.164;5.400;2022-11-20T07:45:32;24.23;;;7.70;;
47103;SDS011;32853;52.164;5.400;2022-11-20T07:48:08;16.90;;;7.63;;
47103;SDS011;32853;52.164;5.400;2022-11-20T07:50:33;24.92;;;8.68;;
47103;SDS011;32853;52.164;5.400;2022-11-20T07:53:02;16.63;;;7.20;;
47103;SDS011;32853;52.164;5.400;2022-11-20T07:55:37;15.03;;;7.70;;
47103;SDS011;32853;52.164;5.400;2022-11-20T07:58:12;14.33;;;6.87;;
47103;SDS011;32853;52.164;5.400;2022-11-20T08:00:45;18.17;;;7.83;;
47103;SDS011;32853;52.164;5.400;2022-11-20T08:06:40;14.60;;;6.07;;
47103;SDS011;32853;52.164;5.400;2022-11-20T08:09:05;21.97;;;7.77;;
47103;SDS011;32853;52.164;5.400;2022-11-20T08:11:40;16.37;;;7.23;;
47103;SDS011;32853;52.164;5.400;2022-11-20T08:14:58;15.13;;;7.27;;
47103;SDS011;32853;52.164;5.400;2022-11-20T08:20:48;21.03;;;8.63;;
47103;SDS011;32853;52.164;5.400;2022-11-20T08:26:37;19.13;;;8.70;;
47103;SDS011;32853;52.164;5.400;2022-11-20T08:32:29;17.33;;;6.97;;
47103;SDS011;32853;52.164;5.400;2022-11-20T08:38:31;13.60;;;7.27;;
47103;SDS011;32853;52.164;5.400;2022-11-20T08:46:55;18.77;;;7.67;;
47103;SDS011;32853;52.164;5.400;2022-11-20T08:49:41;13.90;;;7.67;;
47103;SDS011;32853;52.164;5.400;2022-11-20T08:52:07;17.07;;;7.97;;
47103;SDS011;32853;52.164;5.400;2022-11-20T08:54:32;22.70;;;8.70;;
47103;SDS011;32853;52.164;5.400;2022-11-20T08:57:00;20.77;;;8.77;;
47103;SDS011;32853;52.164;5.400;2022-11-20T08:59:32;15.27;;;8.17;;
47103;SDS011;32853;52.164;5.400;2022-11-20T09:05:30;19.30;;;8.83;;
47103;SDS011;32853;52.164;5.400;2022-11-20T09:08:27;21.73;;;8.68;;
47103;SDS011;32853;52.164;5.400;2022-11-20T09:11:06;19.80;;;8.23;;
47103;SDS011;32853;52.164;5.400;2022-11-20T09:13:33;15.07;;;7.00;;
47103;SDS011;32853;52.164;5.400;2022-11-20T09:16:05;23.33;;;8.87;;
47103;SDS011;32853;52.164;5.400;2022-11-20T09:18:44;18.70;;;7.90;;
47103;SDS011;32853;52.164;5.400;2022-11-20T09:21:10;17.90;;;8.20;;
47103;SDS011;32853;52.164;5.400;2022-11-20T09:30:34;18.07;;;8.77;;
47103;SDS011;32853;52.164;5.400;2022-11-20T09:33:06;14.57;;;7.57;;
47103;SDS011;32853;52.164;5.400;2022-11-20T09:54:47;23.13;;;9.83;;
47103;SDS011;32853;52.164;5.400;2022-11-20T10:00:04;15.60;;;8.63;;
47103;SDS011;32853;52.164;5.400;2022-11-20T10:05:25;18.20;;;9.87;;
47103;SDS011;32853;52.164;5.400;2022-11-20T10:29:03;21.30;;;9.20;;
47103;SDS011;32853;52.164;5.400;2022-11-20T10:41:26;17.37;;;8.83;;
47103;SDS011;32853;52.164;5.400;2022-11-20T10:47:35;32.15;;;10.73;;
47103;SDS011;32853;52.164;5.400;2022-11-20T10:56:09;24.93;;;9.87;;
47103;SDS011;32853;52.164;5.400;2022-11-20T11:17:01;28.50;;;11.60;;
47103;SDS011;32853;52.164;5.400;2022-11-20T12:10:21;31.60;;;12.76;;
47103;SDS011;32853;52.164;5.400;2022-11-20T12:20:30;32.38;;;12.15;;
47103;SDS011;32853;52.164;5.400;2022-11-20T15:56:06;39.63;;;14.32;;
47103;SDS011;32853;52.164;5.400;2022-11-20T16:13:09;31.60;;;13.85;;
47103;SDS011;32853;52.164;5.400;2022-11-20T16:22:56;27.58;;;12.02;;
47103;SDS011;32853;52.164;5.400;2022-11-20T16:26:24;22.23;;;11.40;;
47103;SDS011;32853;52.164;5.400;2022-11-20T16:40:11;26.02;;;11.48;;
47103;SDS011;32853;52.164;5.400;2022-11-20T16:43:26;31.33;;;12.07;;
47103;SDS011;32853;52.164;5.400;2022-11-20T16:45:52;31.42;;;13.68;;
47103;SDS011;32853;52.164;5.400;2022-11-20T16:48:18;29.05;;;13.88;;
47103;SDS011;32853;52.164;5.400;2022-11-20T16:50:46;30.02;;;13.40;;
47103;SDS011;32853;52.164;5.400;2022-11-20T16:53:22;30.80;;;11.77;;
47103;SDS011;32853;52.164;5.400;2022-11-20T16:55:47;25.95;;;11.80;;
47103;SDS011;32853;52.164;5.400;2022-11-20T16:58:17;24.52;;;12.00;;
47103;SDS011;32853;52.164;5.400;2022-11-20T17:00:43;25.95;;;12.48;;
47103;SDS011;32853;52.164;5.400;2022-11-20T17:03:09;30.45;;;13.60;;
47103;SDS011;32853;52.164;5.400;2022-11-20T17:05:36;29.27;;;12.48;;
47103;SDS011;32853;52.164;5.400;2022-11-20T17:08:01;28.90;;;11.73;;
47103;SDS011;32853;52.164;5.400;2022-11-20T17:10:34;28.00;;;13.80;;
47103;SDS011;32853;52.164;5.400;2022-11-20T17:12:59;30.20;;;12.52;;
47103;SDS011;32853;52.164;5.400;2022-11-20T17:15:27;23.23;;;10.77;;
47103;SDS011;32853;52.164;5.400;2022-11-20T17:17:54;35.10;;;12.85;;
47103;SDS011;32853;52.164;5.400;2022-11-20T17:20:19;30.00;;;12.38;;
47103;SDS011;32853;52.164;5.400;2022-11-20T17:22:44;31.70;;;14.50;;
47103;SDS011;32853;52.164;5.400;2022-11-20T17:25:34;27.52;;;14.38;;
47103;SDS011;32853;52.164;5.400;2022-11-20T17:28:08;27.58;;;13.30;;
47103;SDS011;32853;52.164;5.400;2022-11-20T17:31:10;31.30;;;14.40;;
47103;SDS011;32853;52.164;5.400;2022-11-20T17:33:56;37.22;;;14.98;;
47103;SDS011;32853;52.164;5.400;2022-11-20T17:36:31;30.20;;;12.80;;
47103;SDS011;32853;52.164;5.400;2022-11-20T17:39:17;23.83;;;12.65;;
47103;SDS011;32853;52.164;5.400;2022-11-20T17:41:50;29.05;;;12.65;;
47103;SDS011;32853;52.164;5.400;2022-11-20T17:47:55;34.05;;;14.20;;
47103;SDS011;32853;52.164;5.400;2022-11-20T17:50:23;36.97;;;14.05;;
47103;SDS011;32853;52.164;5.400;2022-11-20T17:52:48;31.30;;;14.48;;
47103;SDS011;32853;52.164;5.400;2022-11-20T17:55:14;30.40;;;13.13;;
47103;SDS011;32853;52.164;5.400;2022-11-20T17:58:37;32.72;;;13.93;;
47103;SDS011;32853;52.164;5.400;2022-11-20T18:10:00;25.10;;;13.05;;
47103;SDS011;32853;52.164;5.400;2022-11-20T18:12:26;30.67;;;14.60;;
47103;SDS011;32853;52.164;5.400;2022-11-20T18:14:58;29.20;;;13.13;;
47103;SDS011;32853;52.164;5.400;2022-11-20T18:18:31;30.77;;;13.35;;
47103;SDS011;32853;52.164;5.400;2022-11-20T18:21:06;33.13;;;13.77;;
47103;SDS011;32853;52.164;5.400;2022-11-20T18:23:34;29.02;;;12.88;;
47103;SDS011;32853;52.164;5.400;2022-11-20T18:26:04;26.05;;;12.75;;
47103;SDS011;32853;52.164;5.400;2022-11-20T18:28:43;29.25;;;13.63;;
47103;SDS011;32853;52.164;5.400;2022-11-20T18:34:45;33.13;;;13.43;;
47103;SDS011;32853;52.164;5.400;2022-11-20T18:41:03;28.88;;;14.88;;
47103;SDS011;32853;52.164;5.400;2022-11-20T18:43:32;26.95;;;12.77;;
47103;SDS011;32853;52.164;5.400;2022-11-20T18:46:19;35.47;;;13.85;;
47103;SDS011;32853;52.164;5.400;2022-11-20T18:48:49;35.60;;;12.45;;
47103;SDS011;32853;52.164;5.400;2022-11-20T18:51:34;30.73;;;13.50;;
47103;SDS011;32853;52.164;5.400;2022-11-20T18:54:20;27.48;;;14.20;;
47103;SDS011;32853;52.164;5.400;2022-11-20T18:59:56;30.48;;;12.82;;
47103;SDS011;32853;52.164;5.400;2022-11-20T19:03:07;27.55;;;12.93;;
47103;SDS011;32853;52.164;5.400;2022-11-20T19:05:23;26.90;;;12.67;;
47103;SDS011;32853;52.164;5.400;2022-11-20T19:11:07;27.10;;;12.90;;
47103;SDS011;32853;52.164;5.400;2022-11-20T19:13:45;26.27;;;12.57;;
47103;SDS011;32853;52.164;5.400;2022-11-20T19:16:35;26.23;;;10.35;;
47103;SDS011;32853;52.164;5.400;2022-11-20T19:19:43;28.00;;;12.43;;
47103;SDS011;32853;52.164;5.400;2022-11-20T19:22:09;28.65;;;11.82;;
47103;SDS011;32853;52.164;5.400;2022-11-20T19:24:34;31.55;;;14.45;;
47103;SDS011;32853;52.164;5.400;2022-11-20T19:27:00;23.10;;;11.85;;
47103;SDS011;32853;52.164;5.400;2022-11-20T19:29:28;27.92;;;13.52;;
47103;SDS011;32853;52.164;5.400;2022-11-20T19:31:54;26.15;;;13.32;;
47103;SDS011;32853;52.164;5.400;2022-11-20T19:34:29;28.40;;;12.32;;
47103;SDS011;32853;52.164;5.400;2022-11-20T19:37:11;24.70;;;12.27;;
47103;SDS011;32853;52.164;5.400;2022-11-20T19:39:40;27.67;;;13.32;;
47103;SDS011;32853;52.164;5.400;2022-11-20T19:42:05;30.40;;;12.15;;
47103;SDS011;32853;52.164;5.400;2022-11-20T19:44:54;27.85;;;12.98;;
47103;SDS011;32853;52.164;5.400;2022-11-20T19:47:27;29.40;;;12.98;;
47103;SDS011;32853;52.164;5.400;2022-11-20T19:49:55;31.58;;;12.18;;
47103;SDS011;32853;52.164;5.400;2022-11-20T19:52:23;29.83;;;13.55;;
47103;SDS011;32853;52.164;5.400;2022-11-20T19:55:01;27.77;;;13.02;;
47103;SDS011;32853;52.164;5.400;2022-11-20T19:57:35;26.38;;;12.77;;
47103;SDS011;32853;52.164;5.400;2022-11-20T20:00:03;25.17;;;11.07;;
47103;SDS011;32853;52.164;5.400;2022-11-20T20:03:03;23.27;;;11.50;;
47103;SDS011;32853;52.164;5.400;2022-11-20T20:08:36;27.17;;;12.02;;
47103;SDS011;32853;52.164;5.400;2022-11-20T20:11:25;28.70;;;12.23;;
47103;SDS011;32853;52.164;5.400;2022-11-20T20:13:52;27.98;;;11.88;;
47103;SDS011;32853;52.164;5.400;2022-11-20T20:16:20;28.27;;;12.68;;
47103;SDS011;32853;52.164;5.400;2022-11-20T20:18:47;34.85;;;14.10;;
47103;SDS011;32853;52.164;5.400;2022-11-20T20:21:14;27.52;;;13.50;;
47103;SDS011;32853;52.164;5.400;2022-11-20T20:23:51;30.17;;;13.88;;
47103;SDS011;32853;52.164;5.400;2022-11-20T20:29:12;28.67;;;13.35;;
47103;SDS011;32853;52.164;5.400;2022-11-20T20:31:50;29.33;;;12.30;;
47103;SDS011;32853;52.164;5.400;2022-11-20T20:34:16;35.70;;;14.43;;
47103;SDS011;32853;52.164;5.400;2022-11-20T20:40:03;33.65;;;13.18;;
47103;SDS011;32853;52.164;5.400;2022-11-20T20:42:36;28.00;;;14.15;;
47103;SDS011;32853;52.164;5.400;2022-11-20T21:01:05;38.65;;;14.57;;
47103;SDS011;32853;52.164;5.400;2022-11-20T21:03:50;32.17;;;14.07;;
47103;SDS011;32853;52.164;5.400;2022-11-20T21:14:15;34.63;;;15.15;;
47103;SDS011;32853;52.164;5.400;2022-11-20T21:16:40;29.23;;;13.40;;
47103;SDS011;32853;52.164;5.400;2022-11-20T21:19:07;32.30;;;14.18;;
47103;SDS011;32853;52.164;5.400;2022-11-20T21:21:35;40.45;;;15.50;;
47103;SDS011;32853;52.164;5.400;2022-11-20T21:24:20;32.35;;;12.90;;
47103;SDS011;32853;52.164;5.400;2022-11-20T21:26:52;28.05;;;13.63;;
47103;SDS011;32853;52.164;5.400;2022-11-20T21:29:26;48.70;;;17.20;;
47103;SDS011;32853;52.164;5.400;2022-11-20T21:31:54;31.92;;;13.70;;
47103;SDS011;32853;52.164;5.400;2022-11-20T21:34:20;34.20;;;15.50;;
47103;SDS011;32853;52.164;5.400;2022-11-20T21:36:55;36.45;;;15.43;;
47103;SDS011;32853;52.164;5.400;2022-11-20T21:39:30;37.08;;;15.75;;
47103;SDS011;32853;52.164;5.400;2022-11-20T21:41:56;35.28;;;14.45;;
47103;SDS011;32853;52.164;5.400;2022-11-20T21:44:21;32.22;;;13.70;;
47103;SDS011;32853;52.164;5.400;2022-11-20T21:46:48;30.98;;;14.77;;
47103;SDS011;32853;52.164;5.400;2022-11-20T21:49:15;35.70;;;14.30;;
47103;SDS011;32853;52.164;5.400;2022-11-20T21:54:12;34.28;;;14.48;;
47103;SDS011;32853;52.164;5.400;2022-11-20T21:56:37;36.22;;;14.60;;
47103;SDS011;32853;52.164;5.400;2022-11-20T21:59:11;30.67;;;14.52;;
47103;SDS011;32853;52.164;5.400;2022-11-20T22:01:39;35.97;;;15.52;;
47103;SDS011;32853;52.164;5.400;2022-11-20T22:04:05;26.85;;;13.15;;
47103;SDS011;32853;52.164;5.400;2022-11-20T22:06:32;33.58;;;14.63;;
47103;SDS011;32853;52.164;5.400;2022-11-20T22:09:00;29.80;;;14.57;;
47103;SDS011;32853;52.164;5.400;2022-11-20T22:11:26;33.13;;;13.90;;
47103;SDS011;32853;52.164;5.400;2022-11-20T22:16:50;38.10;;;15.65;;
47103;SDS011;32853;52.164;5.400;2022-11-20T22:19:32;34.90;;;15.00;;
47103;SDS011;32853;52.164;5.400;2022-11-20T22:22:02;31.73;;;14.27;;
47103;SDS011;32853;52.164;5.400;2022-11-20T22:24:35;33.55;;;15.00;;
47103;SDS011;32853;52.164;5.400;2022-11-20T22:27:01;35.15;;;16.02;;
47103;SDS011;32853;52.164;5.400;2022-11-20T22:29:32;35.00;;;14.82;;
47103;SDS011;32853;52.164;5.400;2022-11-20T22:31:59;34.60;;;14.98;;
47103;SDS011;32853;52.164;5.400;2022-11-20T22:34:25;43.13;;;17.08;;
47103;SDS011;32853;52.164;5.400;2022-11-20T22:36:50;35.85;;;15.57;;
47103;SDS011;32853;52.164;5.400;2022-11-20T22:39:15;37.13;;;14.77;;
47103;SDS011;32853;52.164;5.400;2022-11-20T22:41:42;33.47;;;15.25;;
47103;SDS011;32853;52.164;5.400;2022-11-20T22:44:11;40.28;;;17.55;;
47103;SDS011;32853;52.164;5.400;2022-11-20T22:46:39;34.70;;;14.68;;
47103;SDS011;32853;52.164;5.400;2022-11-20T22:49:05;38.35;;;17.00;;
47103;SDS011;32853;52.164;5.400;2022-11-20T22:51:36;35.50;;;14.98;;
47103;SDS011;32853;52.164;5.400;2022-11-20T22:54:03;37.30;;;15.35;;
47103;SDS011;32853;52.164;5.400;2022-11-20T22:56:29;43.28;;;16.83;;
47103;SDS011;32853;52.164;5.400;2022-11-20T22:58:56;36.08;;;15.25;;
47103;SDS011;32853;52.164;5.400;2022-11-20T23:01:36;35.33;;;16.10;;
47103;SDS011;32853;52.164;5.400;2022-11-20T23:04:09;31.55;;;14.90;;
47103;SDS011;32853;52.164;5.400;2022-11-20T23:06:35;30.83;;;13.95;;
47103;SDS011;32853;52.164;5.400;2022-11-20T23:09:02;39.67;;;15.43;;
47103;SDS011;32853;52.164;5.400;2022-11-20T23:11:30;39.63;;;15.38;;
47103;SDS011;32853;52.164;5.400;2022-11-20T23:13:57;39.38;;;16.48;;
47103;SDS011;32853;52.164;5.400;2022-11-20T23:16:27;37.03;;;15.05;;
47103;SDS011;32853;52.164;5.400;2022-11-20T23:18:58;36.13;;;15.13;;
47103;SDS011;32853;52.164;5.400;2022-11-20T23:21:25;44.42;;;16.00;;
47103;SDS011;32853;52.164;5.400;2022-11-20T23:23:55;36.45;;;14.73;;
47103;SDS011;32853;52.164;5.400;2022-11-20T23:26:22;35.92;;;15.88;;
47103;SDS011;32853;52.164;5.400;2022-11-20T23:28:49;33.65;;;14.27;;
47103;SDS011;32853;52.164;5.400;2022-11-20T23:31:17;33.83;;;14.65;;
47103;SDS011;32853;52.164;5.400;2022-11-20T23:33:43;39.95;;;15.52;;
47103;SDS011;32853;52.164;5.400;2022-11-20T23:36:09;35.10;;;14.13;;
47103;SDS011;32853;52.164;5.400;2022-11-20T23:38:36;40.53;;;14.98;;
47103;SDS011;32853;52.164;5.400;2022-11-20T23:41:02;37.42;;;13.93;;
47103;SDS011;32853;52.164;5.400;2022-11-20T23:43:28;33.33;;;14.68;;
47103;SDS011;32853;52.164;5.400;2022-11-20T23:45:56;35.03;;;14.52;;